AVA2158 SEGU-SEQM
Flight info
| Callsign | AVA2158 |
|---|---|
| Flight time | 0h 28m |
| Altitude | 25000 |
| Route | USOGI1 PAMIS G675 QIT |
| Aircraft | A20N/M-V/N |
Departure
| Time | 2026-04-26 03:51 |
|---|---|
| Airport | José Joaquín de Olmedo International Airport (SEGU) |
Arrival
| Time | 2026-04-26 04:19 |
|---|---|
| Airport | Mariscal Sucre International Airport (SEQM) |
| Time | Latitude | Longitude | Altitude | Speed | Heading |
|---|---|---|---|---|---|
| 2026-04-26 03:29 | -2.15463 | -79.88477 | 30 ft | 0 kts | 300° |
| 2026-04-26 03:42 | -2.15465 | -79.88475 | 31 ft | 1 kts | 300° |
| 2026-04-26 03:42 | -2.15472 | -79.88462 | 31 ft | 2 kts | 301° |
| 2026-04-26 03:43 | -2.15483 | -79.88447 | 31 ft | 3 kts | 315° |
| 2026-04-26 03:43 | -2.15495 | -79.88436 | 31 ft | 3 kts | 317° |
| 2026-04-26 03:43 | -2.15510 | -79.88422 | 31 ft | 5 kts | 317° |
| 2026-04-26 03:43 | -2.15529 | -79.88411 | 31 ft | 2 kts | 12° |
| 2026-04-26 03:44 | -2.15533 | -79.88412 | 31 ft | 0 kts | 29° |
| 2026-04-26 03:46 | -2.15532 | -79.88412 | 31 ft | 0 kts | 29° |
| 2026-04-26 03:46 | -2.15530 | -79.88410 | 31 ft | 2 kts | 31° |
| 2026-04-26 03:47 | -2.15516 | -79.88401 | 31 ft | 5 kts | 34° |
| 2026-04-26 03:47 | -2.15477 | -79.88369 | 31 ft | 10 kts | 41° |
| 2026-04-26 03:47 | -2.15408 | -79.88323 | 31 ft | 14 kts | 30° |
| 2026-04-26 03:47 | -2.15310 | -79.88264 | 31 ft | 18 kts | 31° |
| 2026-04-26 03:48 | -2.15192 | -79.88193 | 31 ft | 21 kts | 31° |
| 2026-04-26 03:48 | -2.15174 | -79.88182 | 31 ft | 21 kts | 31° |
| 2026-04-26 03:48 | -2.15043 | -79.88103 | 31 ft | 23 kts | 31° |
| 2026-04-26 03:48 | -2.14907 | -79.88022 | 31 ft | 23 kts | 31° |
| 2026-04-26 03:49 | -2.14794 | -79.87954 | 31 ft | 14 kts | 31° |
| 2026-04-26 03:49 | -2.14756 | -79.87889 | 31 ft | 11 kts | 90° |
| 2026-04-26 03:49 | -2.14767 | -79.87847 | 31 ft | 9 kts | 116° |
| 2026-04-26 03:49 | -2.14834 | -79.87820 | 31 ft | 10 kts | 208° |
| 2026-04-26 03:50 | -2.14922 | -79.87871 | 31 ft | 31 kts | 210° |
| 2026-04-26 03:50 | -2.15341 | -79.88116 | 31 ft | 109 kts | 211° |
| 2026-04-26 03:50 | -2.15870 | -79.88430 | 31 ft | 152 kts | 211° |
| 2026-04-26 03:50 | -2.16899 | -79.89036 | 309 ft | 181 kts | 210° |
| 2026-04-26 03:51 | -2.18203 | -79.89354 | 691 ft | 211 kts | 180° |
| 2026-04-26 03:51 | -2.19579 | -79.88693 | 1065 ft | 237 kts | 139° |
| 2026-04-26 03:51 | -2.20341 | -79.87195 | 1689 ft | 249 kts | 103° |
| 2026-04-26 03:51 | -2.20248 | -79.85761 | 2290 ft | 255 kts | 78° |
| 2026-04-26 03:52 | -2.19671 | -79.84560 | 2838 ft | 257 kts | 57° |
| 2026-04-26 03:52 | -2.18302 | -79.83403 | 3495 ft | 264 kts | 30° |
| 2026-04-26 03:52 | -2.16507 | -79.82984 | 4179 ft | 267 kts | 4° |
| 2026-04-26 03:52 | -2.14662 | -79.83169 | 4799 ft | 269 kts | 349° |
| 2026-04-26 03:53 | -2.12844 | -79.83576 | 5555 ft | 267 kts | 345° |
| 2026-04-26 03:53 | -2.10992 | -79.84018 | 6019 ft | 282 kts | 343° |
| 2026-04-26 03:53 | -2.09047 | -79.84497 | 6689 ft | 284 kts | 342° |
| 2026-04-26 03:53 | -2.07115 | -79.84974 | 7329 ft | 288 kts | 342° |
| 2026-04-26 03:54 | -2.05180 | -79.85483 | 7953 ft | 290 kts | 341° |
| 2026-04-26 03:54 | -2.03223 | -79.86013 | 8581 ft | 291 kts | 341° |
| 2026-04-26 03:54 | -2.01272 | -79.86547 | 9207 ft | 291 kts | 340° |
| 2026-04-26 03:54 | -1.99337 | -79.87096 | 9829 ft | 289 kts | 340° |
| 2026-04-26 03:55 | -1.97374 | -79.87556 | 10432 ft | 292 kts | 349° |
| 2026-04-26 03:55 | -1.95355 | -79.87279 | 11046 ft | 298 kts | 14° |
| 2026-04-26 03:55 | -1.93548 | -79.86227 | 11621 ft | 306 kts | 33° |
| 2026-04-26 03:55 | -1.91935 | -79.84769 | 12135 ft | 320 kts | 42° |
| 2026-04-26 03:56 | -1.90405 | -79.83105 | 12645 ft | 330 kts | 46° |
| 2026-04-26 03:56 | -1.88885 | -79.81316 | 13155 ft | 340 kts | 47° |
| 2026-04-26 03:56 | -1.87371 | -79.79481 | 13658 ft | 347 kts | 48° |
| 2026-04-26 03:56 | -1.85823 | -79.77597 | 14162 ft | 354 kts | 48° |
| 2026-04-26 03:57 | -1.84252 | -79.75693 | 14664 ft | 359 kts | 48° |
| 2026-04-26 03:57 | -1.82636 | -79.73751 | 15169 ft | 363 kts | 47° |
| 2026-04-26 03:57 | -1.81002 | -79.71804 | 15672 ft | 367 kts | 47° |
| 2026-04-26 03:57 | -1.79350 | -79.69851 | 16172 ft | 371 kts | 47° |
| 2026-04-26 03:58 | -1.77677 | -79.67886 | 16672 ft | 373 kts | 47° |
| 2026-04-26 03:58 | -1.75980 | -79.65902 | 17175 ft | 376 kts | 47° |
| 2026-04-26 03:58 | -1.74280 | -79.63923 | 17674 ft | 378 kts | 47° |
| 2026-04-26 03:58 | -1.72686 | -79.62073 | 18138 ft | 379 kts | 46° |
| 2026-04-26 03:59 | -1.71163 | -79.60308 | 18580 ft | 380 kts | 46° |
| 2026-04-26 03:59 | -1.69433 | -79.58306 | 19081 ft | 381 kts | 46° |
| 2026-04-26 03:59 | -1.67707 | -79.56312 | 19569 ft | 385 kts | 46° |
| 2026-04-26 04:00 | -1.65926 | -79.54258 | 20069 ft | 394 kts | 46° |
| 2026-04-26 04:00 | -1.64110 | -79.52166 | 20573 ft | 403 kts | 46° |
| 2026-04-26 04:00 | -1.62251 | -79.50022 | 21078 ft | 412 kts | 46° |
| 2026-04-26 04:00 | -1.60203 | -79.47953 | 21586 ft | 419 kts | 39° |
| 2026-04-26 04:01 | -1.57923 | -79.46120 | 22093 ft | 427 kts | 34° |
| 2026-04-26 04:01 | -1.55446 | -79.44394 | 22606 ft | 436 kts | 31° |
| 2026-04-26 04:01 | -1.52859 | -79.42746 | 23116 ft | 445 kts | 29° |
| 2026-04-26 04:01 | -1.50172 | -79.41122 | 23624 ft | 454 kts | 28° |
| 2026-04-26 04:02 | -1.47445 | -79.39524 | 24125 ft | 462 kts | 27° |
| 2026-04-26 04:02 | -1.44629 | -79.37901 | 24630 ft | 470 kts | 27° |
| 2026-04-26 04:02 | -1.41740 | -79.36249 | 24906 ft | 483 kts | 27° |
| 2026-04-26 04:02 | -1.38802 | -79.34576 | 24988 ft | 492 kts | 27° |
| 2026-04-26 04:03 | -1.35824 | -79.32877 | 25001 ft | 492 kts | 27° |
| 2026-04-26 04:03 | -1.32853 | -79.31179 | 24999 ft | 493 kts | 27° |
| 2026-04-26 04:03 | -1.29875 | -79.29472 | 24997 ft | 494 kts | 27° |
| 2026-04-26 04:03 | -1.26892 | -79.27758 | 24996 ft | 494 kts | 27° |
| 2026-04-26 04:04 | -1.23913 | -79.26043 | 24996 ft | 494 kts | 27° |
| 2026-04-26 04:04 | -1.20915 | -79.24313 | 24996 ft | 494 kts | 27° |
| 2026-04-26 04:04 | -1.17944 | -79.22597 | 24996 ft | 494 kts | 27° |
| 2026-04-26 04:04 | -1.14984 | -79.20885 | 24996 ft | 494 kts | 27° |
| 2026-04-26 04:05 | -1.11984 | -79.19148 | 24996 ft | 494 kts | 27° |
| 2026-04-26 04:05 | -1.09005 | -79.17422 | 24996 ft | 494 kts | 27° |
| 2026-04-26 04:05 | -1.06050 | -79.15708 | 24996 ft | 494 kts | 27° |
| 2026-04-26 04:05 | -1.03044 | -79.13964 | 24996 ft | 494 kts | 27° |
| 2026-04-26 04:06 | -1.00082 | -79.12246 | 24996 ft | 494 kts | 27° |
| 2026-04-26 04:06 | -0.97097 | -79.10513 | 24996 ft | 494 kts | 27° |
| 2026-04-26 04:06 | -0.94129 | -79.08789 | 24967 ft | 495 kts | 27° |
| 2026-04-26 04:06 | -0.91182 | -79.07078 | 24802 ft | 492 kts | 27° |
| 2026-04-26 04:07 | -0.88210 | -79.05350 | 24591 ft | 486 kts | 27° |
| 2026-04-26 04:07 | -0.85304 | -79.03659 | 24373 ft | 480 kts | 27° |
| 2026-04-26 04:07 | -0.82493 | -79.01889 | 24150 ft | 478 kts | 34° |
| 2026-04-26 04:07 | -0.80053 | -78.99608 | 23932 ft | 478 kts | 45° |
| 2026-04-26 04:08 | -0.77987 | -78.97015 | 23720 ft | 478 kts | 52° |
| 2026-04-26 04:08 | -0.76178 | -78.94266 | 23507 ft | 477 kts | 57° |
| 2026-04-26 04:08 | -0.74520 | -78.91407 | 23291 ft | 475 kts | 59° |
| 2026-04-26 04:08 | -0.72953 | -78.88480 | 23073 ft | 474 kts | 61° |
| 2026-04-26 04:09 | -0.71457 | -78.85558 | 22855 ft | 472 kts | 62° |
| 2026-04-26 04:09 | -0.69998 | -78.82645 | 22638 ft | 470 kts | 62° |
| 2026-04-26 04:09 | -0.68550 | -78.79734 | 22378 ft | 466 kts | 62° |
| 2026-04-26 04:09 | -0.67109 | -78.76841 | 22083 ft | 461 kts | 62° |
| 2026-04-26 04:10 | -0.65666 | -78.73965 | 21780 ft | 457 kts | 62° |
| 2026-04-26 04:10 | -0.64251 | -78.71172 | 21481 ft | 452 kts | 62° |
| 2026-04-26 04:10 | -0.62814 | -78.68363 | 21141 ft | 447 kts | 61° |
| 2026-04-26 04:10 | -0.62073 | -78.66925 | 21028 ft | 441 kts | 61° |
| 2026-04-26 04:11 | -0.60672 | -78.64225 | 20717 ft | 433 kts | 61° |
| 2026-04-26 04:11 | -0.59288 | -78.61579 | 20264 ft | 428 kts | 60° |
| 2026-04-26 04:11 | -0.57912 | -78.58969 | 19792 ft | 424 kts | 60° |
| 2026-04-26 04:11 | -0.56539 | -78.56380 | 19316 ft | 418 kts | 60° |
| 2026-04-26 04:12 | -0.55182 | -78.53832 | 18840 ft | 413 kts | 60° |
| 2026-04-26 04:12 | -0.53832 | -78.51307 | 18362 ft | 407 kts | 60° |
| 2026-04-26 04:12 | -0.52919 | -78.49603 | 18038 ft | 403 kts | 60° |
| 2026-04-26 04:12 | -0.51967 | -78.47829 | 17804 ft | 395 kts | 60° |
| 2026-04-26 04:13 | -0.50676 | -78.45425 | 17331 ft | 389 kts | 60° |
| 2026-04-26 04:13 | -0.49388 | -78.43062 | 16846 ft | 384 kts | 58° |
| 2026-04-26 04:13 | -0.47787 | -78.40966 | 16321 ft | 377 kts | 41° |
| 2026-04-26 04:13 | -0.45695 | -78.39468 | 15822 ft | 367 kts | 26° |
| 2026-04-26 04:14 | -0.43355 | -78.38467 | 15323 ft | 359 kts | 15° |
| 2026-04-26 04:14 | -0.41024 | -78.37786 | 15078 ft | 346 kts | 12° |
| 2026-04-26 04:14 | -0.38737 | -78.37136 | 15007 ft | 329 kts | 12° |
| 2026-04-26 04:14 | -0.37887 | -78.36889 | 15000 ft | 323 kts | 12° |
| 2026-04-26 04:15 | -0.36024 | -78.36330 | 14856 ft | 313 kts | 13° |
| 2026-04-26 04:15 | -0.33965 | -78.35679 | 14548 ft | 308 kts | 14° |
| 2026-04-26 04:15 | -0.31937 | -78.35003 | 14160 ft | 305 kts | 14° |
| 2026-04-26 04:15 | -0.31798 | -78.34961 | 14117 ft | 305 kts | 13° |
| 2026-04-26 04:16 | -0.30011 | -78.34614 | 13089 ft | 309 kts | 1° |
| 2026-04-26 04:16 | -0.27932 | -78.34612 | 12234 ft | 289 kts | 356° |
| 2026-04-26 04:16 | -0.25995 | -78.34755 | 11593 ft | 269 kts | 355° |
| 2026-04-26 04:16 | -0.24175 | -78.34903 | 11010 ft | 252 kts | 356° |
| 2026-04-26 04:17 | -0.22474 | -78.34985 | 10567 ft | 235 kts | 357° |
| 2026-04-26 04:17 | -0.20898 | -78.35067 | 10141 ft | 222 kts | 357° |
| 2026-04-26 04:17 | -0.19379 | -78.35127 | 9556 ft | 219 kts | 358° |
| 2026-04-26 04:17 | -0.17870 | -78.35202 | 9025 ft | 213 kts | 357° |
| 2026-04-26 04:18 | -0.16387 | -78.35260 | 8491 ft | 209 kts | 358° |
| 2026-04-26 04:18 | -0.14974 | -78.35333 | 8043 ft | 203 kts | 358° |
| 2026-04-26 04:18 | -0.13608 | -78.35384 | 7872 ft | 178 kts | 357° |
| 2026-04-26 04:18 | -0.12592 | -78.35430 | 7872 ft | 117 kts | 358° |
| 2026-04-26 04:19 | -0.12019 | -78.35452 | 7872 ft | 43 kts | 357° |
| 2026-04-26 04:19 | -0.11863 | -78.35460 | 7872 ft | 17 kts | 356° |
| 2026-04-26 04:19 | -0.11758 | -78.35503 | 7872 ft | 14 kts | 333° |
| 2026-04-26 04:19 | -0.11689 | -78.35542 | 7872 ft | 8 kts | 327° |
| 2026-04-26 04:20 | -0.11645 | -78.35573 | 7872 ft | 7 kts | 325° |
| 2026-04-26 04:20 | -0.11619 | -78.35593 | 7872 ft | 7 kts | 314° |
| 2026-04-26 04:20 | -0.11627 | -78.35637 | 7872 ft | 5 kts | 219° |
| 2026-04-26 04:20 | -0.11655 | -78.35646 | 7872 ft | 4 kts | 178° |
| 2026-04-26 04:21 | -0.11687 | -78.35645 | 7872 ft | 5 kts | 177° |
| 2026-04-26 04:21 | -0.11730 | -78.35643 | 7872 ft | 7 kts | 177° |
| 2026-04-26 04:21 | -0.11767 | -78.35641 | 7872 ft | 9 kts | 177° |
| 2026-04-26 04:21 | -0.11839 | -78.35638 | 7872 ft | 12 kts | 178° |
| 2026-04-26 04:22 | -0.11933 | -78.35634 | 7872 ft | 15 kts | 178° |
| 2026-04-26 04:22 | -0.12048 | -78.35629 | 7872 ft | 18 kts | 178° |
| 2026-04-26 04:22 | -0.12175 | -78.35624 | 7872 ft | 16 kts | 178° |
| 2026-04-26 04:22 | -0.12258 | -78.35620 | 7872 ft | 11 kts | 178° |
| 2026-04-26 04:23 | -0.12334 | -78.35618 | 7872 ft | 7 kts | 186° |
| 2026-04-26 04:23 | -0.12358 | -78.35649 | 7872 ft | 7 kts | 267° |
| 2026-04-26 04:23 | -0.12360 | -78.35703 | 7872 ft | 9 kts | 267° |
| 2026-04-26 04:23 | -0.12363 | -78.35771 | 7872 ft | 10 kts | 267° |
| 2026-04-26 04:24 | -0.12366 | -78.35825 | 7872 ft | 8 kts | 267° |
| 2026-04-26 04:24 | -0.12402 | -78.35844 | 7872 ft | 7 kts | 175° |
| 2026-04-26 04:24 | -0.12459 | -78.35840 | 7872 ft | 9 kts | 178° |
| 2026-04-26 04:24 | -0.12524 | -78.35841 | 7872 ft | 9 kts | 181° |
| 2026-04-26 04:25 | -0.12547 | -78.35867 | 7872 ft | 5 kts | 271° |
| 2026-04-26 04:25 | -0.12547 | -78.35893 | 7872 ft | 3 kts | 268° |
| 2026-04-26 04:25 | -0.12548 | -78.35910 | 7872 ft | 2 kts | 268° |
| 2026-04-26 04:25 | -0.12548 | -78.35919 | 7872 ft | 1 kts | 268° |
| 2026-04-26 04:26 | -0.12549 | -78.35928 | 7872 ft | 0 kts | 268° |